sensor_id;sensor_type;location;lat;lon;timestamp;P1;P2;P0
66195;PMS7003;53000;45.182;5.736;2022-10-16T00:00:41;4.75;4.00;4.00
66195;PMS7003;53000;45.182;5.736;2022-10-16T00:03:07;7.00;7.00;5.00
66195;PMS7003;53000;45.182;5.736;2022-10-16T00:05:37;6.50;6.00;5.00
66195;PMS7003;53000;45.182;5.736;2022-10-16T00:08:06;5.00;5.00;4.50
66195;PMS7003;53000;45.182;5.736;2022-10-16T00:10:39;6.25;6.25;5.50
66195;PMS7003;53000;45.182;5.736;2022-10-16T00:13:04;7.50;6.00;4.00
66195;PMS7003;53000;45.182;5.736;2022-10-16T00:15:33;5.00;5.00;4.25
66195;PMS7003;53000;45.182;5.736;2022-10-16T00:18:04;6.50;5.00;4.00
66195;PMS7003;53000;45.182;5.736;2022-10-16T00:20:35;4.50;4.50;3.50
66195;PMS7003;53000;45.182;5.736;2022-10-16T00:23:02;6.00;4.25;4.00
66195;PMS7003;53000;45.182;5.736;2022-10-16T00:25:28;7.50;6.50;5.25
66195;PMS7003;53000;45.182;5.736;2022-10-16T00:28:02;6.25;5.75;5.00
66195;PMS7003;53000;45.182;5.736;2022-10-16T00:30:29;7.00;5.00;5.00
66195;PMS7003;53000;45.182;5.736;2022-10-16T00:33:00;4.33;3.67;3.33
66195;PMS7003;53000;45.182;5.736;2022-10-16T00:35:27;5.33;5.33;4.00
66195;PMS7003;53000;45.182;5.736;2022-10-16T00:37:56;6.00;5.00;4.25
66195;PMS7003;53000;45.182;5.736;2022-10-16T00:40:24;6.00;5.00;4.00
66195;PMS7003;53000;45.182;5.736;2022-10-16T00:42:49;5.75;5.25;4.25
66195;PMS7003;53000;45.182;5.736;2022-10-16T00:45:14;5.50;4.00;4.00
66195;PMS7003;53000;45.182;5.736;2022-10-16T00:47:43;6.25;5.50;5.00
66195;PMS7003;53000;45.182;5.736;2022-10-16T00:50:30;6.75;6.50;5.50
66195;PMS7003;53000;45.182;5.736;2022-10-16T00:52:57;7.50;5.50;5.00
66195;PMS7003;53000;45.182;5.736;2022-10-16T00:55:28;5.75;4.75;3.75
66195;PMS7003;53000;45.182;5.736;2022-10-16T00:57:55;9.50;4.75;4.00
66195;PMS7003;53000;45.182;5.736;2022-10-16T01:00:26;7.00;4.50;4.00
66195;PMS7003;53000;45.182;5.736;2022-10-16T01:02:55;6.00;5.00;4.75
66195;PMS7003;53000;45.182;5.736;2022-10-16T01:05:22;4.75;4.00;3.00
66195;PMS7003;53000;45.182;5.736;2022-10-16T01:07:57;4.25;4.00;4.00
66195;PMS7003;53000;45.182;5.736;2022-10-16T01:13:31;5.00;5.00;4.75
66195;PMS7003;53000;45.182;5.736;2022-10-16T01:18:35;5.50;5.50;4.50
66195;PMS7003;53000;45.182;5.736;2022-10-16T01:21:10;5.50;5.50;4.75
66195;PMS7003;53000;45.182;5.736;2022-10-16T01:24:03;4.50;3.75;3.50
66195;PMS7003;53000;45.182;5.736;2022-10-16T01:37:49;5.75;4.75;4.00
66195;PMS7003;53000;45.182;5.736;2022-10-16T01:40:25;6.25;5.75;4.00
66195;PMS7003;53000;45.182;5.736;2022-10-16T01:42:53;5.25;5.25;4.75
66195;PMS7003;53000;45.182;5.736;2022-10-16T01:45:30;3.50;3.00;1.00
66195;PMS7003;53000;45.182;5.736;2022-10-16T01:48:00;5.75;5.00;4.50
66195;PMS7003;53000;45.182;5.736;2022-10-16T01:50:29;6.00;3.75;3.50
66195;PMS7003;53000;45.182;5.736;2022-10-16T01:53:03;4.50;3.75;3.00
66195;PMS7003;53000;45.182;5.736;2022-10-16T01:55:33;4.25;4.00;3.00
66195;PMS7003;53000;45.182;5.736;2022-10-16T01:58:08;5.25;5.25;3.75
66195;PMS7003;53000;45.182;5.736;2022-10-16T02:00:37;3.00;3.00;2.67
66195;PMS7003;53000;45.182;5.736;2022-10-16T02:03:07;5.25;5.25;4.00
66195;PMS7003;53000;45.182;5.736;2022-10-16T02:05:47;6.25;4.75;4.00
66195;PMS7003;53000;45.182;5.736;2022-10-16T02:08:14;6.25;5.00;4.75
66195;PMS7003;53000;45.182;5.736;2022-10-16T02:10:39;4.33;3.67;2.67
66195;PMS7003;53000;45.182;5.736;2022-10-16T02:13:13;3.00;3.00;2.67
66195;PMS7003;53000;45.182;5.736;2022-10-16T02:15:44;3.75;3.75;2.75
66195;PMS7003;53000;45.182;5.736;2022-10-16T02:18:10;4.00;4.00;4.00
66195;PMS7003;53000;45.182;5.736;2022-10-16T02:20:39;3.67;3.67;2.67
66195;PMS7003;53000;45.182;5.736;2022-10-16T02:23:22;4.25;3.50;3.00
66195;PMS7003;53000;45.182;5.736;2022-10-16T02:25:56;4.00;3.25;3.25
66195;PMS7003;53000;45.182;5.736;2022-10-16T02:28:27;2.25;1.50;1.25
66195;PMS7003;53000;45.182;5.736;2022-10-16T02:31:03;3.00;3.00;2.33
66195;PMS7003;53000;45.182;5.736;2022-10-16T02:33:35;5.00;3.67;3.67
66195;PMS7003;53000;45.182;5.736;2022-10-16T02:36:11;2.67;2.67;2.67
66195;PMS7003;53000;45.182;5.736;2022-10-16T02:38:41;3.50;3.50;2.00
66195;PMS7003;53000;45.182;5.736;2022-10-16T02:41:10;5.25;4.25;3.25
66195;PMS7003;53000;45.182;5.736;2022-10-16T02:43:36;6.25;5.00;3.75
66195;PMS7003;53000;45.182;5.736;2022-10-16T02:46:01;3.00;3.00;3.00
66195;PMS7003;53000;45.182;5.736;2022-10-16T02:48:29;4.50;4.50;4.00
66195;PMS7003;53000;45.182;5.736;2022-10-16T02:50:55;5.75;5.75;4.75
66195;PMS7003;53000;45.182;5.736;2022-10-16T02:53:22;5.75;5.75;4.50
66195;PMS7003;53000;45.182;5.736;2022-10-16T02:55:50;6.00;5.00;3.25
66195;PMS7003;53000;45.182;5.736;2022-10-16T02:58:16;5.25;5.25;5.00
66195;PMS7003;53000;45.182;5.736;2022-10-16T03:00:43;4.00;4.00;4.00
66195;PMS7003;53000;45.182;5.736;2022-10-16T03:03:11;5.67;4.33;3.00
66195;PMS7003;53000;45.182;5.736;2022-10-16T03:05:39;4.33;4.33;3.67
66195;PMS7003;53000;45.182;5.736;2022-10-16T03:08:07;5.00;3.75;3.25
66195;PMS7003;53000;45.182;5.736;2022-10-16T03:10:35;6.50;6.25;4.50
66195;PMS7003;53000;45.182;5.736;2022-10-16T03:13:03;6.75;6.75;4.75
66195;PMS7003;53000;45.182;5.736;2022-10-16T03:15:28;7.75;5.75;4.50
66195;PMS7003;53000;45.182;5.736;2022-10-16T03:17:54;9.00;7.00;6.00
66195;PMS7003;53000;45.182;5.736;2022-10-16T03:20:20;8.75;7.50;6.50
66195;PMS7003;53000;45.182;5.736;2022-10-16T03:22:45;10.00;8.50;7.25
66195;PMS7003;53000;45.182;5.736;2022-10-16T03:25:13;6.50;6.50;4.50
66195;PMS7003;53000;45.182;5.736;2022-10-16T03:27:41;11.00;8.50;6.50
66195;PMS7003;53000;45.182;5.736;2022-10-16T03:30:06;8.25;7.50;6.00
66195;PMS7003;53000;45.182;5.736;2022-10-16T03:32:35;7.75;7.50;6.25
66195;PMS7003;53000;45.182;5.736;2022-10-16T03:35:03;9.75;9.25;7.00
66195;PMS7003;53000;45.182;5.736;2022-10-16T03:37:38;10.75;9.50;6.00
66195;PMS7003;53000;45.182;5.736;2022-10-16T03:40:03;8.25;8.00;6.00
66195;PMS7003;53000;45.182;5.736;2022-10-16T03:42:31;6.00;3.25;2.75
66195;PMS7003;53000;45.182;5.736;2022-10-16T03:44:59;8.00;8.00;5.75
66195;PMS7003;53000;45.182;5.736;2022-10-16T03:47:24;9.25;9.00;7.00
66195;PMS7003;53000;45.182;5.736;2022-10-16T03:49:57;6.75;6.00;4.00
66195;PMS7003;53000;45.182;5.736;2022-10-16T03:52:25;11.75;9.00;7.00
66195;PMS7003;53000;45.182;5.736;2022-10-16T03:54:50;10.75;6.00;5.25
66195;PMS7003;53000;45.182;5.736;2022-10-16T03:57:16;8.75;8.25;7.00
66195;PMS7003;53000;45.182;5.736;2022-10-16T03:59:42;9.50;8.75;7.00
66195;PMS7003;53000;45.182;5.736;2022-10-16T04:02:07;9.50;9.00;6.75
66195;PMS7003;53000;45.182;5.736;2022-10-16T04:04:40;7.00;7.00;5.00
66195;PMS7003;53000;45.182;5.736;2022-10-16T04:07:05;13.25;9.75;7.75
66195;PMS7003;53000;45.182;5.736;2022-10-16T04:09:30;7.25;7.00;6.00
66195;PMS7003;53000;45.182;5.736;2022-10-16T04:12:05;10.00;9.00;7.00
66195;PMS7003;53000;45.182;5.736;2022-10-16T04:14:33;7.25;7.00;5.00
66195;PMS7003;53000;45.182;5.736;2022-10-16T04:17:01;7.75;7.00;6.00
66195;PMS7003;53000;45.182;5.736;2022-10-16T04:19:31;6.00;6.00;5.50
66195;PMS7003;53000;45.182;5.736;2022-10-16T04:21:59;6.00;6.00;4.25
66195;PMS7003;53000;45.182;5.736;2022-10-16T04:24:24;7.25;5.00;4.50
66195;PMS7003;53000;45.182;5.736;2022-10-16T04:26:49;7.75;5.75;5.00
66195;PMS7003;53000;45.182;5.736;2022-10-16T04:29:15;7.50;5.50;5.00
66195;PMS7003;53000;45.182;5.736;2022-10-16T04:31:40;5.75;5.50;5.00
66195;PMS7003;53000;45.182;5.736;2022-10-16T04:34:05;4.00;4.00;3.75
66195;PMS7003;53000;45.182;5.736;2022-10-16T04:36:31;5.50;4.00;3.50
66195;PMS7003;53000;45.182;5.736;2022-10-16T04:38:58;5.75;5.75;4.00
66195;PMS7003;53000;45.182;5.736;2022-10-16T04:41:24;6.00;5.00;5.00
66195;PMS7003;53000;45.182;5.736;2022-10-16T04:43:55;6.00;5.00;4.75
66195;PMS7003;53000;45.182;5.736;2022-10-16T04:46:25;5.00;4.00;3.00
66195;PMS7003;53000;45.182;5.736;2022-10-16T04:48:52;5.00;4.33;3.67
66195;PMS7003;53000;45.182;5.736;2022-10-16T04:51:18;7.75;6.00;5.00
66195;PMS7003;53000;45.182;5.736;2022-10-16T04:53:49;7.00;5.00;4.00
66195;PMS7003;53000;45.182;5.736;2022-10-16T04:56:21;6.25;5.00;5.00
66195;PMS7003;53000;45.182;5.736;2022-10-16T04:58:47;5.75;4.00;4.00
66195;PMS7003;53000;45.182;5.736;2022-10-16T05:01:15;4.75;4.00;4.00
66195;PMS7003;53000;45.182;5.736;2022-10-16T05:03:41;5.00;5.00;4.00
66195;PMS7003;53000;45.182;5.736;2022-10-16T05:06:06;6.00;6.00;5.00
66195;PMS7003;53000;45.182;5.736;2022-10-16T05:08:37;4.75;4.00;4.00
66195;PMS7003;53000;45.182;5.736;2022-10-16T05:11:07;6.00;5.25;4.25
66195;PMS7003;53000;45.182;5.736;2022-10-16T05:13:35;6.00;4.75;4.00
66195;PMS7003;53000;45.182;5.736;2022-10-16T05:16:05;4.67;4.67;4.00
66195;PMS7003;53000;45.182;5.736;2022-10-16T05:18:33;7.00;5.00;4.00
66195;PMS7003;53000;45.182;5.736;2022-10-16T05:21:01;6.50;6.25;4.50
66195;PMS7003;53000;45.182;5.736;2022-10-16T05:23:29;5.00;5.00;3.50
66195;PMS7003;53000;45.182;5.736;2022-10-16T05:25:55;6.50;5.25;4.75
66195;PMS7003;53000;45.182;5.736;2022-10-16T05:28:27;4.75;4.75;4.00
66195;PMS7003;53000;45.182;5.736;2022-10-16T05:30:56;6.75;5.75;5.00
66195;PMS7003;53000;45.182;5.736;2022-10-16T05:33:23;7.00;7.00;5.50
66195;PMS7003;53000;45.182;5.736;2022-10-16T05:35:52;6.50;5.50;5.00
66195;PMS7003;53000;45.182;5.736;2022-10-16T05:38:22;5.75;5.75;5.00
66195;PMS7003;53000;45.182;5.736;2022-10-16T05:40:53;6.25;6.25;5.00
66195;PMS7003;53000;45.182;5.736;2022-10-16T05:43:18;3.75;2.00;2.00
66195;PMS7003;53000;45.182;5.736;2022-10-16T05:45:44;7.00;6.00;5.50
66195;PMS7003;53000;45.182;5.736;2022-10-16T05:48:17;3.75;3.75;3.75
66195;PMS7003;53000;45.182;5.736;2022-10-16T05:53:41;6.50;6.50;5.50
66195;PMS7003;53000;45.182;5.736;2022-10-16T05:56:09;7.50;6.00;5.75
66195;PMS7003;53000;45.182;5.736;2022-10-16T05:58:37;7.00;5.50;5.00
66195;PMS7003;53000;45.182;5.736;2022-10-16T06:01:15;8.00;7.25;6.50
66195;PMS7003;53000;45.182;5.736;2022-10-16T06:03:43;6.50;5.75;4.50
66195;PMS7003;53000;45.182;5.736;2022-10-16T06:06:13;10.00;8.00;6.00
66195;PMS7003;53000;45.182;5.736;2022-10-16T06:08:40;5.75;4.75;4.00
66195;PMS7003;53000;45.182;5.736;2022-10-16T06:11:09;3.25;3.25;3.00
66195;PMS7003;53000;45.182;5.736;2022-10-16T06:13:38;7.00;7.00;6.00
66195;PMS7003;53000;45.182;5.736;2022-10-16T06:16:06;7.00;7.00;5.50
66195;PMS7003;53000;45.182;5.736;2022-10-16T06:18:37;9.25;8.00;7.00
66195;PMS7003;53000;45.182;5.736;2022-10-16T06:21:10;9.75;8.25;6.00
66195;PMS7003;53000;45.182;5.736;2022-10-16T06:23:38;7.75;7.00;6.00
66195;PMS7003;53000;45.182;5.736;2022-10-16T06:26:08;7.75;5.75;5.00
66195;PMS7003;53000;45.182;5.736;2022-10-16T06:28:35;7.75;6.25;5.25
66195;PMS7003;53000;45.182;5.736;2022-10-16T06:31:00;8.00;6.25;5.25
66195;PMS7003;53000;45.182;5.736;2022-10-16T06:33:27;8.75;6.75;5.75
66195;PMS7003;53000;45.182;5.736;2022-10-16T06:35:53;5.75;5.25;5.00
66195;PMS7003;53000;45.182;5.736;2022-10-16T06:38:21;7.75;6.25;5.00
66195;PMS7003;53000;45.182;5.736;2022-10-16T06:40:46;7.50;6.00;5.00
66195;PMS7003;53000;45.182;5.736;2022-10-16T06:43:13;7.25;6.00;5.00
66195;PMS7003;53000;45.182;5.736;2022-10-16T06:45:49;8.50;7.00;6.00
66195;PMS7003;53000;45.182;5.736;2022-10-16T06:48:20;8.00;7.50;6.00
66195;PMS7003;53000;45.182;5.736;2022-10-16T06:51:09;11.50;9.50;8.25
66195;PMS7003;53000;45.182;5.736;2022-10-16T06:53:33;8.25;8.25;6.50
66195;PMS7003;53000;45.182;5.736;2022-10-16T06:58:35;8.50;8.50;7.50
66195;PMS7003;53000;45.182;5.736;2022-10-16T07:01:00;8.50;7.00;5.00
66195;PMS7003;53000;45.182;5.736;2022-10-16T07:03:26;7.00;5.50;4.50
66195;PMS7003;53000;45.182;5.736;2022-10-16T07:05:51;5.00;5.00;5.00
66195;PMS7003;53000;45.182;5.736;2022-10-16T07:08:17;4.50;4.50;3.75
66195;PMS7003;53000;45.182;5.736;2022-10-16T07:10:42;5.75;5.00;4.75
66195;PMS7003;53000;45.182;5.736;2022-10-16T07:13:07;5.00;3.75;2.50
66195;PMS7003;53000;45.182;5.736;2022-10-16T07:15:33;5.25;5.25;5.00
66195;PMS7003;53000;45.182;5.736;2022-10-16T07:18:01;4.75;4.75;4.00
66195;PMS7003;53000;45.182;5.736;2022-10-16T07:20:29;5.75;5.75;5.00
66195;PMS7003;53000;45.182;5.736;2022-10-16T07:22:54;5.00;5.00;4.25
66195;PMS7003;53000;45.182;5.736;2022-10-16T07:25:19;4.25;3.75;2.50
66195;PMS7003;53000;45.182;5.736;2022-10-16T07:27:45;5.25;5.00;4.00
66195;PMS7003;53000;45.182;5.736;2022-10-16T07:30:10;6.75;6.25;5.00
66195;PMS7003;53000;45.182;5.736;2022-10-16T07:32:36;9.00;7.25;6.00
66195;PMS7003;53000;45.182;5.736;2022-10-16T07:35:10;6.00;5.00;4.25
66195;PMS7003;53000;45.182;5.736;2022-10-16T07:37:38;9.00;9.00;6.75
66195;PMS7003;53000;45.182;5.736;2022-10-16T07:40:06;8.00;7.75;6.25
66195;PMS7003;53000;45.182;5.736;2022-10-16T07:42:34;9.25;9.25;7.50
66195;PMS7003;53000;45.182;5.736;2022-10-16T07:45:05;10.00;10.00;9.00
66195;PMS7003;53000;45.182;5.736;2022-10-16T07:47:33;9.50;8.50;7.25
66195;PMS7003;53000;45.182;5.736;2022-10-16T07:49:58;9.50;7.00;5.00
66195;PMS7003;53000;45.182;5.736;2022-10-16T07:52:23;9.00;9.00;7.75
66195;PMS7003;53000;45.182;5.736;2022-10-16T07:54:49;6.50;6.00;5.00
66195;PMS7003;53000;45.182;5.736;2022-10-16T07:57:14;7.25;5.00;4.00
66195;PMS7003;53000;45.182;5.736;2022-10-16T07:59:47;3.75;3.00;2.00
66195;PMS7003;53000;45.182;5.736;2022-10-16T08:02:14;2.67;2.67;2.33
66195;PMS7003;53000;45.182;5.736;2022-10-16T08:04:40;3.00;3.00;3.00
66195;PMS7003;53000;45.182;5.736;2022-10-16T08:07:07;4.33;2.67;2.33
66195;PMS7003;53000;45.182;5.736;2022-10-16T08:09:36;4.00;2.67;2.00
66195;PMS7003;53000;45.182;5.736;2022-10-16T08:12:04;2.33;2.33;1.67
66195;PMS7003;53000;45.182;5.736;2022-10-16T08:14:38;2.33;1.67;1.33
66195;PMS7003;53000;45.182;5.736;2022-10-16T08:17:13;3.00;2.33;2.00
66195;PMS7003;53000;45.182;5.736;2022-10-16T08:19:39;2.67;2.67;2.67
66195;PMS7003;53000;45.182;5.736;2022-10-16T08:22:04;2.33;2.33;2.00
66195;PMS7003;53000;45.182;5.736;2022-10-16T08:24:29;1.67;1.33;0.67
66195;PMS7003;53000;45.182;5.736;2022-10-16T08:26:56;2.00;2.00;1.67
66195;PMS7003;53000;45.182;5.736;2022-10-16T08:29:24;2.00;2.00;2.00
66195;PMS7003;53000;45.182;5.736;2022-10-16T08:31:51;3.00;2.00;2.00
66195;PMS7003;53000;45.182;5.736;2022-10-16T08:34:17;2.00;2.00;2.00
66195;PMS7003;53000;45.182;5.736;2022-10-16T08:36:42;3.00;2.00;2.00
66195;PMS7003;53000;45.182;5.736;2022-10-16T08:39:07;5.00;2.00;2.00
66195;PMS7003;53000;45.182;5.736;2022-10-16T08:46:44;2.00;2.00;2.00
66195;PMS7003;53000;45.182;5.736;2022-10-16T08:49:16;2.00;2.00;2.00
66195;PMS7003;53000;45.182;5.736;2022-10-16T08:51:44;1.00;1.00;1.00
66195;PMS7003;53000;45.182;5.736;2022-10-16T08:56:40;2.00;2.00;2.00
66195;PMS7003;53000;45.182;5.736;2022-10-16T08:59:09;1.33;1.33;1.33
66195;PMS7003;53000;45.182;5.736;2022-10-16T09:01:41;2.00;2.00;1.25
66195;PMS7003;53000;45.182;5.736;2022-10-16T09:07:00;1.00;1.00;1.00
66195;PMS7003;53000;45.182;5.736;2022-10-16T09:12:19;2.00;2.00;2.00
66195;PMS7003;53000;45.182;5.736;2022-10-16T09:23:32;1.00;1.00;0.50
66195;PMS7003;53000;45.182;5.736;2022-10-16T09:26:02;1.00;1.00;1.00
66195;PMS7003;53000;45.182;5.736;2022-10-16T09:28:30;0.50;0.50;0.50
66195;PMS7003;53000;45.182;5.736;2022-10-16T09:30:55;1.50;1.50;0.50
66195;PMS7003;53000;45.182;5.736;2022-10-16T09:33:22;1.25;1.25;1.00
66195;PMS7003;53000;45.182;5.736;2022-10-16T09:35:54;1.00;1.00;0.25
66195;PMS7003;53000;45.182;5.736;2022-10-16T09:38:29;0.00;0.00;0.00
66195;PMS7003;53000;45.182;5.736;2022-10-16T09:40:57;1.00;1.00;1.00
66195;PMS7003;53000;45.182;5.736;2022-10-16T09:43:27;1.75;1.75;1.00
66195;PMS7003;53000;45.182;5.736;2022-10-16T09:46:02;2.50;2.50;1.50
66195;PMS7003;53000;45.182;5.736;2022-10-16T09:51:05;1.25;1.25;1.00
66195;PMS7003;53000;45.182;5.736;2022-10-16T09:53:44;2.00;2.00;2.00
66195;PMS7003;53000;45.182;5.736;2022-10-16T09:56:20;2.00;2.00;1.00
66195;PMS7003;53000;45.182;5.736;2022-10-16T09:59:03;1.50;1.50;1.00
66195;PMS7003;53000;45.182;5.736;2022-10-16T10:01:37;1.00;1.00;1.00
66195;PMS7003;53000;45.182;5.736;2022-10-16T10:04:10;0.25;0.25;0.00
66195;PMS7003;53000;45.182;5.736;2022-10-16T10:09:25;1.25;1.25;1.00
66195;PMS7003;53000;45.182;5.736;2022-10-16T10:17:15;1.50;1.00;1.00
66195;PMS7003;53000;45.182;5.736;2022-10-16T10:19:58;2.00;1.00;0.75
66195;PMS7003;53000;45.182;5.736;2022-10-16T10:39:38;4.00;2.00;2.00
66195;PMS7003;53000;45.182;5.736;2022-10-16T10:45:16;3.00;1.50;1.00
66195;PMS7003;53000;45.182;5.736;2022-10-16T10:47:56;2.25;2.00;1.00
66195;PMS7003;53000;45.182;5.736;2022-10-16T10:56:09;2.00;2.00;1.00
66195;PMS7003;53000;45.182;5.736;2022-10-16T11:04:15;1.00;1.00;1.00
66195;PMS7003;53000;45.182;5.736;2022-10-16T11:06:53;3.00;2.00;1.00
66195;PMS7003;53000;45.182;5.736;2022-10-16T11:12:29;2.00;2.00;2.00
66195;PMS7003;53000;45.182;5.736;2022-10-16T11:20:32;2.00;2.00;1.50
66195;PMS7003;53000;45.182;5.736;2022-10-16T11:25:48;1.25;1.00;0.50
66195;PMS7003;53000;45.182;5.736;2022-10-16T11:28:25;2.75;2.00;1.25
66195;PMS7003;53000;45.182;5.736;2022-10-16T11:31:41;1.00;1.00;1.00
66195;PMS7003;53000;45.182;5.736;2022-10-16T11:36:41;1.25;1.25;1.25
66195;PMS7003;53000;45.182;5.736;2022-10-16T11:41:53;1.00;1.00;1.00
66195;PMS7003;53000;45.182;5.736;2022-10-16T11:44:32;0.00;0.00;0.00
66195;PMS7003;53000;45.182;5.736;2022-10-16T11:49:56;1.00;1.00;1.00
66195;PMS7003;53000;45.182;5.736;2022-10-16T11:52:44;3.00;2.00;2.00
66195;PMS7003;53000;45.182;5.736;2022-10-16T11:55:15;6.75;5.25;3.75
66195;PMS7003;53000;45.182;5.736;2022-10-16T11:57:54;1.75;1.50;1.50
66195;PMS7003;53000;45.182;5.736;2022-10-16T12:00:31;2.00;2.00;1.50
66195;PMS7003;53000;45.182;5.736;2022-10-16T12:03:22;4.00;1.75;1.00
66195;PMS7003;53000;45.182;5.736;2022-10-16T12:08:35;1.00;1.00;1.00
66195;PMS7003;53000;45.182;5.736;2022-10-16T12:16:36;1.00;1.00;1.00
66195;PMS7003;53000;45.182;5.736;2022-10-16T12:19:13;1.25;1.00;0.75
66195;PMS7003;53000;45.182;5.736;2022-10-16T12:21:40;0.50;0.50;0.50
66195;PMS7003;53000;45.182;5.736;2022-10-16T12:24:19;1.50;1.50;1.00
66195;PMS7003;53000;45.182;5.736;2022-10-16T12:26:47;1.75;1.25;1.00
66195;PMS7003;53000;45.182;5.736;2022-10-16T12:31:53;1.00;1.00;1.00
66195;PMS7003;53000;45.182;5.736;2022-10-16T12:34:26;1.00;1.00;0.75
66195;PMS7003;53000;45.182;5.736;2022-10-16T12:37:07;1.50;1.50;1.50
66195;PMS7003;53000;45.182;5.736;2022-10-16T12:39:42;2.00;2.00;1.00
66195;PMS7003;53000;45.182;5.736;2022-10-16T12:45:58;1.00;1.00;1.00
66195;PMS7003;53000;45.182;5.736;2022-10-16T12:48:00;0.75;0.75;0.00
66195;PMS7003;53000;45.182;5.736;2022-10-16T12:50:28;0.00;0.00;0.00
66195;PMS7003;53000;45.182;5.736;2022-10-16T12:52:57;0.25;0.25;0.00
66195;PMS7003;53000;45.182;5.736;2022-10-16T12:55:26;1.00;1.00;1.00
66195;PMS7003;53000;45.182;5.736;2022-10-16T12:58:18;2.25;0.50;0.50
66195;PMS7003;53000;45.182;5.736;2022-10-16T13:00:57;1.00;0.25;0.00
66195;PMS7003;53000;45.182;5.736;2022-10-16T13:22:39;0.75;0.50;0.50
66195;PMS7003;53000;45.182;5.736;2022-10-16T13:25:28;1.00;0.00;0.00
66195;PMS7003;53000;45.182;5.736;2022-10-16T13:28:05;1.00;1.00;1.00
66195;PMS7003;53000;45.182;5.736;2022-10-16T13:30:54;1.50;0.50;0.50
66195;PMS7003;53000;45.182;5.736;2022-10-16T13:33:41;1.50;1.50;0.75
66195;PMS7003;53000;45.182;5.736;2022-10-16T13:36:24;3.00;1.00;0.50
66195;PMS7003;53000;45.182;5.736;2022-10-16T13:39:06;1.50;1.50;1.00
66195;PMS7003;53000;45.182;5.736;2022-10-16T13:41:39;1.00;0.00;0.00
66195;PMS7003;53000;45.182;5.736;2022-10-16T13:44:08;0.75;0.75;0.75
66195;PMS7003;53000;45.182;5.736;2022-10-16T13:46:41;0.75;0.75;0.75
66195;PMS7003;53000;45.182;5.736;2022-10-16T13:51:47;0.25;0.25;0.25
66195;PMS7003;53000;45.182;5.736;2022-10-16T13:54:19;1.00;1.00;0.00
66195;PMS7003;53000;45.182;5.736;2022-10-16T13:56:45;1.00;1.00;0.25
66195;PMS7003;53000;45.182;5.736;2022-10-16T13:59:23;0.00;0.00;0.00
66195;PMS7003;53000;45.182;5.736;2022-10-16T14:01:58;0.00;0.00;0.00
66195;PMS7003;53000;45.182;5.736;2022-10-16T14:04:32;0.00;0.00;0.00
66195;PMS7003;53000;45.182;5.736;2022-10-16T14:06:58;0.25;0.25;0.00
66195;PMS7003;53000;45.182;5.736;2022-10-16T14:09:24;1.00;0.00;0.00
66195;PMS7003;53000;45.182;5.736;2022-10-16T14:14:43;0.50;0.50;0.50
66195;PMS7003;53000;45.182;5.736;2022-10-16T14:17:53;0.00;0.00;0.00
66195;PMS7003;53000;45.182;5.736;2022-10-16T14:20:02;1.00;0.00;0.00
66195;PMS7003;53000;45.182;5.736;2022-10-16T14:22:30;0.00;0.00;0.00
66195;PMS7003;53000;45.182;5.736;2022-10-16T14:30:29;0.00;0.00;0.00
66195;PMS7003;53000;45.182;5.736;2022-10-16T14:32:57;1.00;0.00;0.00
66195;PMS7003;53000;45.182;5.736;2022-10-16T14:38:03;0.75;0.50;0.50
66195;PMS7003;53000;45.182;5.736;2022-10-16T14:40:34;1.75;1.75;0.75
66195;PMS7003;53000;45.182;5.736;2022-10-16T14:43:04;0.25;0.00;0.00
66195;PMS7003;53000;45.182;5.736;2022-10-16T14:45:31;0.00;0.00;0.00
66195;PMS7003;53000;45.182;5.736;2022-10-16T14:48:03;1.50;1.50;1.00
66195;PMS7003;53000;45.182;5.736;2022-10-16T14:50:39;0.00;0.00;0.00
66195;PMS7003;53000;45.182;5.736;2022-10-16T14:53:08;0.00;0.00;0.00
66195;PMS7003;53000;45.182;5.736;2022-10-16T14:55:40;1.00;1.00;1.00
66195;PMS7003;53000;45.182;5.736;2022-10-16T14:58:16;1.50;1.50;1.25
66195;PMS7003;53000;45.182;5.736;2022-10-16T15:00:44;1.50;1.25;1.00
66195;PMS7003;53000;45.182;5.736;2022-10-16T15:03:12;2.25;1.50;1.50
66195;PMS7003;53000;45.182;5.736;2022-10-16T15:05:38;1.75;1.00;1.00
66195;PMS7003;53000;45.182;5.736;2022-10-16T15:08:12;0.75;0.00;0.00
66195;PMS7003;53000;45.182;5.736;2022-10-16T15:10:42;2.00;1.00;1.00
66195;PMS7003;53000;45.182;5.736;2022-10-16T15:13:12;1.75;1.00;0.50
66195;PMS7003;53000;45.182;5.736;2022-10-16T15:15:44;0.25;0.25;0.25
66195;PMS7003;53000;45.182;5.736;2022-10-16T15:18:28;1.00;1.00;1.00
66195;PMS7003;53000;45.182;5.736;2022-10-16T15:20:53;2.50;0.50;0.50
66195;PMS7003;53000;45.182;5.736;2022-10-16T15:23:23;2.75;2.00;1.00
66195;PMS7003;53000;45.182;5.736;2022-10-16T15:25:52;3.00;1.75;1.25
66195;PMS7003;53000;45.182;5.736;2022-10-16T15:28:19;1.25;1.25;1.00
66195;PMS7003;53000;45.182;5.736;2022-10-16T15:30:49;2.00;1.25;1.00
66195;PMS7003;53000;45.182;5.736;2022-10-16T15:33:17;0.75;0.75;0.75
66195;PMS7003;53000;45.182;5.736;2022-10-16T15:35:47;1.00;1.00;1.00
66195;PMS7003;53000;45.182;5.736;2022-10-16T15:38:14;2.25;0.25;0.25
66195;PMS7003;53000;45.182;5.736;2022-10-16T15:40:42;3.00;3.00;2.75
66195;PMS7003;53000;45.182;5.736;2022-10-16T15:43:08;2.00;2.00;2.00
66195;PMS7003;53000;45.182;5.736;2022-10-16T15:45:36;3.00;2.00;2.00
66195;PMS7003;53000;45.182;5.736;2022-10-16T15:48:04;1.50;1.25;1.00
66195;PMS7003;53000;45.182;5.736;2022-10-16T15:50:39;0.00;0.00;0.00
66195;PMS7003;53000;45.182;5.736;2022-10-16T15:53:07;2.00;2.00;1.00
66195;PMS7003;53000;45.182;5.736;2022-10-16T15:55:33;2.00;2.00;1.25
66195;PMS7003;53000;45.182;5.736;2022-10-16T15:58:03;2.00;2.00;2.00
66195;PMS7003;53000;45.182;5.736;2022-10-16T16:00:31;3.00;2.25;2.00
66195;PMS7003;53000;45.182;5.736;2022-10-16T16:02:57;2.00;2.00;2.00
66195;PMS7003;53000;45.182;5.736;2022-10-16T16:05:25;2.75;2.75;2.00
66195;PMS7003;53000;45.182;5.736;2022-10-16T16:07:52;1.25;1.25;1.25
66195;PMS7003;53000;45.182;5.736;2022-10-16T16:10:22;2.00;2.00;2.00
66195;PMS7003;53000;45.182;5.736;2022-10-16T16:12:48;2.75;2.75;2.25
66195;PMS7003;53000;45.182;5.736;2022-10-16T16:15:16;2.00;0.50;0.25
66195;PMS7003;53000;45.182;5.736;2022-10-16T16:17:42;2.00;2.00;2.00
66195;PMS7003;53000;45.182;5.736;2022-10-16T16:20:18;1.75;1.75;1.25
66195;PMS7003;53000;45.182;5.736;2022-10-16T16:22:43;2.75;2.50;2.25
66195;PMS7003;53000;45.182;5.736;2022-10-16T16:25:14;3.75;3.75;3.00
66195;PMS7003;53000;45.182;5.736;2022-10-16T16:27:42;1.75;1.75;1.50
66195;PMS7003;53000;45.182;5.736;2022-10-16T16:30:09;3.00;1.75;1.50
66195;PMS7003;53000;45.182;5.736;2022-10-16T16:32:36;1.50;1.00;1.00
66195;PMS7003;53000;45.182;5.736;2022-10-16T16:35:01;2.50;1.50;1.00
66195;PMS7003;53000;45.182;5.736;2022-10-16T16:37:28;2.50;1.00;1.00
66195;PMS7003;53000;45.182;5.736;2022-10-16T16:39:53;2.00;2.00;2.00
66195;PMS7003;53000;45.182;5.736;2022-10-16T16:42:20;1.75;0.50;0.00
66195;PMS7003;53000;45.182;5.736;2022-10-16T16:44:51;1.00;1.00;1.00
66195;PMS7003;53000;45.182;5.736;2022-10-16T16:47:16;2.75;1.50;1.50
66195;PMS7003;53000;45.182;5.736;2022-10-16T16:49:44;2.75;1.00;1.00
66195;PMS7003;53000;45.182;5.736;2022-10-16T16:52:11;2.75;1.00;1.00
66195;PMS7003;53000;45.182;5.736;2022-10-16T16:54:37;0.00;0.00;0.00
66195;PMS7003;53000;45.182;5.736;2022-10-16T16:57:02;1.00;1.00;1.00
66195;PMS7003;53000;45.182;5.736;2022-10-16T16:59:32;2.00;2.00;2.00
66195;PMS7003;53000;45.182;5.736;2022-10-16T17:01:58;1.25;1.25;1.25
66195;PMS7003;53000;45.182;5.736;2022-10-16T17:04:24;1.50;1.25;1.00
66195;PMS7003;53000;45.182;5.736;2022-10-16T17:06:53;3.75;1.00;1.00
66195;PMS7003;53000;45.182;5.736;2022-10-16T17:09:19;2.75;0.75;0.00